createdAt,value
2018-01-22T00:01:01.254Z,14.87
2018-01-22T00:03:30.416Z,16.10
2018-01-22T00:05:58.771Z,16.12
2018-01-22T00:08:27.545Z,17.17
2018-01-22T00:10:55.906Z,21.75
2018-01-22T00:13:24.278Z,16.52
2018-01-22T00:15:52.669Z,15.30
2018-01-22T00:18:21.068Z,17.05
2018-01-22T00:20:49.453Z,18.48
2018-01-22T00:23:18.989Z,17.02
2018-01-22T00:25:47.344Z,17.42
2018-01-22T00:28:15.752Z,16.48
2018-01-22T00:30:44.874Z,14.85
2018-01-22T00:33:13.377Z,14.40
2018-01-22T00:35:41.867Z,12.23
2018-01-22T00:38:10.219Z,18.27
2018-01-22T00:40:38.597Z,15.15
2018-01-22T00:43:10.144Z,11.48
2018-01-22T00:45:38.861Z,16.87
2018-01-22T00:48:07.212Z,15.50
2018-01-22T00:50:35.579Z,15.90
2018-01-22T00:53:04.721Z,11.25
2018-01-22T00:55:33.109Z,12.60
2018-01-22T00:58:01.661Z,16.77
2018-01-22T01:00:37.236Z,11.48
2018-01-22T01:03:06.071Z,13.43
2018-01-22T01:05:35.188Z,13.23
2018-01-22T01:08:03.542Z,11.65
2018-01-22T01:10:32.698Z,11.50
2018-01-22T01:13:01.076Z,12.48
2018-01-22T01:15:29.584Z,9.88
2018-01-22T01:17:57.944Z,13.68
2018-01-22T01:20:26.300Z,12.55
2018-01-22T01:22:54.688Z,10.90
2018-01-22T01:25:23.044Z,15.98
2018-01-22T01:27:51.635Z,10.38
2018-01-22T01:30:19.995Z,10.23
2018-01-22T01:32:48.352Z,12.70
2018-01-22T01:35:17.502Z,17.95
2018-01-22T01:37:45.856Z,12.63
2018-01-22T01:40:14.441Z,13.23
2018-01-22T01:42:42.795Z,19.83
2018-01-22T01:45:11.145Z,10.68
2018-01-22T01:47:39.527Z,11.73
2018-01-22T01:50:07.884Z,15.00
2018-01-22T01:52:36.424Z,10.13
2018-01-22T01:55:04.778Z,19.20
2018-01-22T01:57:33.913Z,13.00
2018-01-22T02:00:02.293Z,14.30
2018-01-22T02:02:30.652Z,14.93
2018-01-22T02:04:59.239Z,11.68
2018-01-22T02:07:27.599Z,18.05
2018-01-22T02:09:55.952Z,13.20
2018-01-22T02:12:25.840Z,14.38
2018-01-22T02:14:54.192Z,14.30
2018-01-22T02:17:22.765Z,14.90
2018-01-22T02:19:51.125Z,13.93
2018-01-22T02:22:20.249Z,13.80
2018-01-22T02:24:48.638Z,14.48
2018-01-22T02:27:16.995Z,14.20
2018-01-22T02:29:45.607Z,11.57
2018-01-22T02:32:13.969Z,13.50
2018-01-22T02:34:42.324Z,16.08
2018-01-22T02:37:10.709Z,12.93
2018-01-22T02:39:39.064Z,12.68
2018-01-22T02:42:08.460Z,12.30
2018-01-22T02:44:37.598Z,12.15
2018-01-22T02:47:05.969Z,10.85
2018-01-22T02:49:35.022Z,11.10
2018-01-22T02:52:03.891Z,12.82
2018-01-22T02:54:32.620Z,13.35
2018-01-22T02:57:02.325Z,9.27
2018-01-22T02:59:32.310Z,11.15
2018-01-22T03:02:01.298Z,14.00
2018-01-22T03:04:30.103Z,12.00
2018-01-22T03:06:58.933Z,16.37
2018-01-22T03:09:27.836Z,16.60
2018-01-22T03:11:57.596Z,13.60
2018-01-22T03:14:26.409Z,11.85
2018-01-22T03:16:55.122Z,15.20
2018-01-22T03:19:23.493Z,15.07
2018-01-22T03:21:51.876Z,22.27
2018-01-22T03:24:20.229Z,14.87
2018-01-22T03:26:48.734Z,18.08
2018-01-22T03:29:17.097Z,19.35
2018-01-22T03:31:45.454Z,14.13
2018-01-22T03:34:14.601Z,12.43
2018-01-22T03:36:42.956Z,14.35
2018-01-22T03:39:11.553Z,16.40
2018-01-22T03:41:39.940Z,15.20
2018-01-22T03:44:08.298Z,13.48
2018-01-22T03:46:36.676Z,13.90
2018-01-22T03:49:05.198Z,13.70
2018-01-22T03:51:33.617Z,14.80
2018-01-22T03:54:02.737Z,12.75
2018-01-22T03:56:31.093Z,17.35
2018-01-22T03:59:00.238Z,10.50
2018-01-22T04:01:28.592Z,12.27
2018-01-22T04:03:57.377Z,12.85
2018-01-22T04:06:25.732Z,12.15
2018-01-22T04:08:54.853Z,14.13
2018-01-22T04:11:23.237Z,14.55
2018-01-22T04:13:51.600Z,13.13
2018-01-22T04:16:20.188Z,11.10
2018-01-22T04:18:48.540Z,13.82
2018-01-22T04:21:17.662Z,12.88
2018-01-22T04:23:46.040Z,13.10
2018-01-22T04:26:14.396Z,13.07
2018-01-22T04:28:43.578Z,14.35
2018-01-22T04:31:12.705Z,17.52
2018-01-22T04:33:41.065Z,14.07
2018-01-22T04:36:10.209Z,14.48
2018-01-22T04:38:38.571Z,17.95
2018-01-22T04:41:07.040Z,15.73
2018-01-22T04:43:35.935Z,18.27
2018-01-22T04:46:04.298Z,14.70
2018-01-22T04:48:32.680Z,21.05
2018-01-22T04:51:01.046Z,16.90
2018-01-22T04:53:30.225Z,12.15
2018-01-22T04:55:58.580Z,13.50
2018-01-22T04:58:27.200Z,23.05
2018-01-22T05:00:56.445Z,16.10
2018-01-22T05:03:24.806Z,15.25
2018-01-22T05:05:53.231Z,13.60
2018-01-22T05:08:21.591Z,12.55
2018-01-22T05:10:49.952Z,13.75
2018-01-22T05:13:18.344Z,15.52
2018-01-22T05:15:46.813Z,14.18
2018-01-22T05:18:15.206Z,18.37
2018-01-22T05:20:43.570Z,14.52
2018-01-22T05:23:12.382Z,17.33
2018-01-22T05:25:40.900Z,19.95
2018-01-22T05:28:10.501Z,15.80
2018-01-22T05:30:39.833Z,19.05
2018-01-22T05:33:08.192Z,15.65
2018-01-22T05:35:36.546Z,14.80
2018-01-22T05:38:05.692Z,12.27
2018-01-22T05:40:34.048Z,11.20
2018-01-22T05:43:02.457Z,14.27
2018-01-22T05:45:30.811Z,13.75
2018-01-22T05:47:59.168Z,10.30
2018-01-22T05:50:28.311Z,13.07
2018-01-22T05:52:56.667Z,8.98
2018-01-22T05:55:25.352Z,14.27
2018-01-22T05:57:53.705Z,14.85
2018-01-22T06:00:22.833Z,8.65
2018-01-22T06:02:51.209Z,11.23
2018-01-22T06:05:19.560Z,10.75
2018-01-22T06:07:48.737Z,13.93
2018-01-22T06:10:17.101Z,17.05
2018-01-22T06:12:45.460Z,12.93
2018-01-22T06:15:13.845Z,11.75
2018-01-22T06:17:42.208Z,14.93
2018-01-22T06:20:10.777Z,13.57
2018-01-22T06:22:39.144Z,12.13
2018-01-22T06:25:07.505Z,12.40
2018-01-22T06:27:36.646Z,12.93
2018-01-22T06:30:05.001Z,13.23
2018-01-22T06:32:33.429Z,10.32
2018-01-22T06:35:01.788Z,14.05
2018-01-22T06:37:30.153Z,10.45
2018-01-22T06:39:58.576Z,14.60
2018-01-22T06:42:27.704Z,13.20
2018-01-22T06:44:56.100Z,12.70
2018-01-22T06:47:24.489Z,18.25
2018-01-22T06:49:52.857Z,12.07
2018-01-22T06:52:21.235Z,16.58
2018-01-22T06:54:49.592Z,16.80
2018-01-22T06:57:18.189Z,11.07
2018-01-22T06:59:46.550Z,11.50
2018-01-22T07:02:15.132Z,13.55
2018-01-22T07:04:44.278Z,19.42
2018-01-22T07:07:12.637Z,10.85
2018-01-22T07:09:41.210Z,14.98
2018-01-22T07:12:09.569Z,11.65
2018-01-22T07:14:38.697Z,10.27
2018-01-22T07:17:07.076Z,10.77
2018-01-22T07:19:35.428Z,9.85
2018-01-22T07:22:04.336Z,10.55
2018-01-22T07:24:32.699Z,10.30
2018-01-22T07:27:01.050Z,7.22
2018-01-22T07:29:30.244Z,9.45
2018-01-22T07:31:58.596Z,9.55
2018-01-22T07:34:27.137Z,9.68
2018-01-22T07:36:55.489Z,6.05
2018-01-22T07:39:24.616Z,6.03
2018-01-22T07:41:52.999Z,12.20
2018-01-22T07:44:21.354Z,7.20
2018-01-22T07:46:50.877Z,6.57
2018-01-22T07:49:19.228Z,5.80
2018-01-22T07:51:48.358Z,6.43
2018-01-22T07:54:16.742Z,5.53
2018-01-22T07:56:45.109Z,11.43
2018-01-22T07:59:13.692Z,4.75
2018-01-22T08:01:42.044Z,7.18
2018-01-22T08:04:11.238Z,5.55
2018-01-22T08:06:40.379Z,6.85
2018-01-22T08:09:08.734Z,4.75
2018-01-22T08:11:37.212Z,3.47
2018-01-22T08:14:05.567Z,6.68
2018-01-22T08:16:34.692Z,7.35
2018-01-22T08:19:03.084Z,6.60
2018-01-22T08:21:31.445Z,5.55
2018-01-22T08:24:00.062Z,5.75
2018-01-22T08:26:28.412Z,3.75
2018-01-22T08:28:56.760Z,4.03
2018-01-22T08:31:25.897Z,4.03
2018-01-22T08:33:54.257Z,3.12
2018-01-22T08:36:22.793Z,4.18
2018-01-22T08:38:51.151Z,3.08
2018-01-22T08:41:19.501Z,5.22
2018-01-22T08:43:47.877Z,3.87
2018-01-22T08:46:17.219Z,3.08
2018-01-22T08:48:45.616Z,2.92
2018-01-22T08:51:13.969Z,2.70
2018-01-22T08:53:42.325Z,6.25
2018-01-22T08:56:10.700Z,5.37
2018-01-22T08:58:39.047Z,3.90
2018-01-22T09:01:08.572Z,2.65
2018-01-22T09:03:36.930Z,3.15
2018-01-22T09:06:06.052Z,12.70
2018-01-22T09:08:34.428Z,3.78
2018-01-22T09:11:02.781Z,5.18
2018-01-22T09:13:32.169Z,5.10
2018-01-22T09:16:00.524Z,4.68
2018-01-22T09:18:28.892Z,4.43
2018-01-22T09:20:57.722Z,3.65
2018-01-22T09:23:27.121Z,6.40
2018-01-22T09:25:56.562Z,8.50
2018-01-22T09:28:24.920Z,4.05
2018-01-22T09:30:53.267Z,5.05
2018-01-22T09:33:22.408Z,8.52
2018-01-22T09:35:50.760Z,4.18
2018-01-22T09:38:20.292Z,6.40
2018-01-22T09:40:48.644Z,5.45
2018-01-22T09:43:17.769Z,7.05
2018-01-22T09:45:46.145Z,9.43
2018-01-22T09:48:14.501Z,4.37
2018-01-22T09:50:43.928Z,6.50
2018-01-22T09:53:12.280Z,4.15
2018-01-22T09:55:41.396Z,4.45
2018-01-22T09:58:09.785Z,3.85
2018-01-22T10:00:38.141Z,3.70
2018-01-22T10:03:06.529Z,3.83
2018-01-22T10:05:34.908Z,4.28
2018-01-22T10:08:03.308Z,4.40
2018-01-22T10:10:31.710Z,7.47
2018-01-22T10:13:00.066Z,5.20
2018-01-22T10:15:28.425Z,4.10
2018-01-22T10:17:56.800Z,7.45
2018-01-22T10:20:25.154Z,5.90
2018-01-22T10:22:54.586Z,5.53
2018-01-22T10:25:22.941Z,5.25
2018-01-22T10:27:52.064Z,5.07
2018-01-22T10:30:20.441Z,10.88
2018-01-22T10:32:48.797Z,7.53
2018-01-22T10:35:17.621Z,11.15
2018-01-22T10:37:46.033Z,7.18
2018-01-22T10:40:14.368Z,5.80
2018-01-22T10:42:42.752Z,10.95
2018-01-22T10:45:11.236Z,4.78
2018-01-22T10:47:39.803Z,9.35
2018-01-22T10:50:08.160Z,6.07
2018-01-22T10:52:37.281Z,9.10
2018-01-22T10:55:05.665Z,11.07
2018-01-22T10:57:34.020Z,5.95
2018-01-22T11:00:02.623Z,7.72
2018-01-22T11:02:30.980Z,8.68
2018-01-22T11:04:59.332Z,8.52
2018-01-22T11:07:27.710Z,10.63
2018-01-22T11:09:56.066Z,8.00
2018-01-22T11:12:24.918Z,7.65
2018-01-22T11:14:53.269Z,9.55
2018-01-22T11:17:22.403Z,7.80
2018-01-22T11:19:50.784Z,14.00
2018-01-22T11:22:19.152Z,8.45
2018-01-22T11:24:47.733Z,10.55
2018-01-22T11:27:16.087Z,8.55
2018-01-22T11:29:45.209Z,8.05
2018-01-22T11:32:13.594Z,25.90
2018-01-22T11:34:41.974Z,11.07
2018-01-22T11:37:10.605Z,10.98
2018-01-22T11:39:38.960Z,11.52
2018-01-22T11:42:07.308Z,7.78
2018-01-22T11:44:35.689Z,11.07
2018-01-22T11:47:04.049Z,15.32
2018-01-22T11:49:32.644Z,11.82
2018-01-22T11:52:00.995Z,11.65
2018-01-22T11:54:30.125Z,13.25
2018-01-22T11:56:58.508Z,11.63
2018-01-22T11:59:26.861Z,13.10
2018-01-22T12:01:55.556Z,20.90
2018-01-22T12:04:23.917Z,20.37
2018-01-22T12:06:52.269Z,13.55
2018-01-22T12:09:20.648Z,15.63
2018-01-22T12:11:49.020Z,15.23
2018-01-22T12:14:17.658Z,14.85
2018-01-22T12:16:46.008Z,15.13
2018-01-22T12:19:15.137Z,15.77
2018-01-22T12:21:43.521Z,12.25
2018-01-22T12:24:11.890Z,17.65
2018-01-22T12:26:40.377Z,11.20
2018-01-22T12:29:08.736Z,21.10
2018-01-22T12:31:37.091Z,11.35
2018-01-22T12:34:06.234Z,13.43
2018-01-22T12:36:34.593Z,20.17
2018-01-22T12:39:03.009Z,10.00
2018-01-22T12:41:31.365Z,10.32
2018-01-22T12:43:59.797Z,8.73
2018-01-22T12:46:28.944Z,12.43
2018-01-22T12:48:57.301Z,10.52
2018-01-22T12:51:25.781Z,9.75
2018-01-22T12:53:54.140Z,9.55
2018-01-22T12:56:23.269Z,10.93
2018-01-22T12:58:51.669Z,13.05
2018-01-22T13:01:20.028Z,10.48
2018-01-22T13:03:48.900Z,18.58
2018-01-22T13:06:17.255Z,11.18
2018-01-22T13:08:46.372Z,12.57
2018-01-22T13:11:14.751Z,11.80
2018-01-22T13:13:43.155Z,8.48
2018-01-22T13:16:11.723Z,13.98
2018-01-22T13:18:40.078Z,9.45
2018-01-22T13:21:08.432Z,9.88
2018-01-22T13:23:36.809Z,3.97
2018-01-22T13:26:05.171Z,2.22
2018-01-22T13:28:33.715Z,2.28
2018-01-22T13:31:02.068Z,9.65
2018-01-22T13:33:31.187Z,5.90
2018-01-22T13:35:59.560Z,1.08
2018-01-22T13:38:27.908Z,1.10
2018-01-22T13:41:02.669Z,2.75
2018-01-22T13:43:31.020Z,1.23
2018-01-22T13:46:00.149Z,2.25
2018-01-22T13:48:28.526Z,1.65
2018-01-22T13:50:57.073Z,9.32
2018-01-22T13:53:26.256Z,1.17
2018-01-22T13:55:54.610Z,5.18
2018-01-22T13:58:22.960Z,1.17
2018-01-22T14:00:51.336Z,5.10
2018-01-22T14:03:19.688Z,2.47
2018-01-22T14:05:48.524Z,5.78
2018-01-22T14:08:16.886Z,3.33
2018-01-22T14:10:45.247Z,1.58
2018-01-22T14:13:14.254Z,1.30
2018-01-22T14:15:42.637Z,1.45
2018-01-22T14:18:11.037Z,4.40
2018-01-22T14:20:39.392Z,2.58
2018-01-22T14:23:07.825Z,1.25
2018-01-22T14:25:36.203Z,1.30
2018-01-22T14:28:05.337Z,3.17
2018-01-22T14:30:33.769Z,1.27
2018-01-22T14:33:02.191Z,1.62
2018-01-22T14:35:30.549Z,2.12
2018-01-22T14:37:59.692Z,3.20
2018-01-22T14:40:28.053Z,5.72
2018-01-22T14:42:56.697Z,10.07
2018-01-22T14:45:25.913Z,3.60
2018-01-22T14:47:54.401Z,3.53
2018-01-22T14:50:23.012Z,1.95
2018-01-22T14:52:51.407Z,5.30
2018-01-22T14:55:20.115Z,1.52
2018-01-22T14:57:48.490Z,1.73
2018-01-22T15:00:16.881Z,2.70
2018-01-22T15:02:46.026Z,2.05
2018-01-22T15:05:14.381Z,1.52
2018-01-22T15:07:43.081Z,2.17
2018-01-22T15:10:11.435Z,2.03
2018-01-22T15:12:39.788Z,2.28
2018-01-22T15:15:08.169Z,1.87
2018-01-22T15:17:36.544Z,2.55
2018-01-22T15:20:04.973Z,4.50
2018-01-22T15:22:33.334Z,9.77
2018-01-22T15:25:01.716Z,7.95
2018-01-22T15:27:30.531Z,8.75
2018-01-22T15:29:58.929Z,5.37
2018-01-22T15:32:27.373Z,6.75
2018-01-22T15:34:55.767Z,8.65
2018-01-22T15:37:24.132Z,9.10
2018-01-22T15:39:52.812Z,7.30
2018-01-22T15:42:21.176Z,5.60
2018-01-22T15:44:49.586Z,5.20
2018-01-22T15:47:17.943Z,2.83
2018-01-22T15:49:46.296Z,4.03
2018-01-22T15:52:15.447Z,10.13
2018-01-22T15:54:43.800Z,7.45
2018-01-22T15:57:12.520Z,4.82
2018-01-22T15:59:40.881Z,15.20
2018-01-22T16:02:09.237Z,5.35
2018-01-22T16:04:37.617Z,12.02
2018-01-22T16:07:05.969Z,4.93
2018-01-22T16:09:35.327Z,16.02
2018-01-22T16:12:03.745Z,7.43
2018-01-22T16:14:32.868Z,6.70
2018-01-22T16:17:01.277Z,8.57
2018-01-22T16:19:29.664Z,2.75
2018-01-22T16:21:58.052Z,9.57
2018-01-22T16:24:26.405Z,6.70
2018-01-22T16:26:54.761Z,8.48
2018-01-22T16:29:23.136Z,3.35
2018-01-22T16:31:51.496Z,6.53
2018-01-22T16:34:20.749Z,7.30
2018-01-22T16:36:49.118Z,47.22
2018-01-22T16:39:17.476Z,45.42
2018-01-22T16:41:45.853Z,9.68
2018-01-22T16:44:14.207Z,9.90
2018-01-22T16:46:43.840Z,6.97
2018-01-22T16:49:12.194Z,6.95
2018-01-22T16:51:41.312Z,6.45
2018-01-22T16:54:09.696Z,5.70
2018-01-22T16:56:38.196Z,8.95
2018-01-22T16:59:06.604Z,12.05
2018-01-22T17:01:34.970Z,14.13
2018-01-22T17:04:03.657Z,10.90
2018-01-22T17:06:32.329Z,17.83
2018-01-22T17:09:01.488Z,7.25
2018-01-22T17:11:30.305Z,6.50
2018-01-22T17:13:59.001Z,6.72
2018-01-22T17:16:27.425Z,10.60
2018-01-22T17:18:56.989Z,11.48
2018-01-22T17:21:25.409Z,8.15
2018-01-22T17:23:54.588Z,7.22
2018-01-22T17:26:22.994Z,11.95
2018-01-22T17:28:51.356Z,8.27
2018-01-22T17:31:20.505Z,13.73
2018-01-22T17:33:48.920Z,9.95
2018-01-22T17:36:17.673Z,9.48
2018-01-22T17:38:46.360Z,6.87
2018-01-22T17:41:14.789Z,9.18
2018-01-22T17:43:43.943Z,15.52
2018-01-22T17:46:12.340Z,8.68
2018-01-22T17:48:41.597Z,9.60
2018-01-22T17:51:10.041Z,11.77
2018-01-22T17:53:39.189Z,8.25
2018-01-22T17:56:08.045Z,11.07
2018-01-22T17:58:36.885Z,13.45
2018-01-22T18:01:05.449Z,16.45
2018-01-22T18:03:34.068Z,7.72
2018-01-22T18:06:02.793Z,7.90
2018-01-22T18:08:31.608Z,12.98
2018-01-22T18:10:59.992Z,7.50
2018-01-22T18:13:28.617Z,8.50
2018-01-22T18:15:57.021Z,8.63
2018-01-22T18:18:25.373Z,6.75
2018-01-22T18:20:53.765Z,17.12
2018-01-22T18:23:22.884Z,6.35
2018-01-22T18:25:51.458Z,10.55
2018-01-22T18:28:19.840Z,8.80
2018-01-22T18:30:49.478Z,6.40
2018-01-22T18:33:17.873Z,9.18
2018-01-22T18:35:46.407Z,9.60
2018-01-22T18:38:15.314Z,9.95
2018-01-22T18:40:43.853Z,15.57
2018-01-22T18:43:13.800Z,10.52
2018-01-22T18:45:42.524Z,11.45
2018-01-22T18:48:10.914Z,12.57
2018-01-22T18:50:40.185Z,9.10
2018-01-22T18:53:08.673Z,10.57
2018-01-22T18:55:37.331Z,9.98
2018-01-22T18:58:06.137Z,11.10
2018-01-22T19:00:34.926Z,10.35
2018-01-22T19:03:03.759Z,11.35
2018-01-22T19:05:32.606Z,10.95
2018-01-22T19:08:01.187Z,9.77
2018-01-22T19:10:29.628Z,11.70
2018-01-22T19:12:59.406Z,19.58
2018-01-22T19:15:29.988Z,11.32
2018-01-22T19:18:00.139Z,20.65
2018-01-22T19:20:28.938Z,15.63
2018-01-22T19:22:57.777Z,14.82
2018-01-22T19:25:26.621Z,12.25
2018-01-22T19:28:09.008Z,15.73
2018-01-22T19:30:37.912Z,19.15
2018-01-22T19:33:06.482Z,16.30
2018-01-22T19:35:35.009Z,14.60
2018-01-22T19:38:04.256Z,20.52
2018-01-22T19:40:34.076Z,16.85
2018-01-22T19:43:02.550Z,23.52
2018-01-22T19:45:31.690Z,29.95
2018-01-22T19:48:01.250Z,22.73
2018-01-22T19:50:30.302Z,20.90
2018-01-22T19:52:59.955Z,19.20
2018-01-22T19:55:28.764Z,28.48
2018-01-22T19:57:57.454Z,23.27
2018-01-22T20:00:26.796Z,19.10
2018-01-22T20:02:55.240Z,19.87
2018-01-22T20:05:24.816Z,17.20
2018-01-22T20:07:53.275Z,14.95
2018-01-22T20:10:22.335Z,18.55
2018-01-22T20:12:51.533Z,14.30
2018-01-22T20:15:20.688Z,15.40
2018-01-22T20:17:49.267Z,13.93
2018-01-22T20:20:17.649Z,14.57
2018-01-22T20:22:46.136Z,14.70
2018-01-22T20:25:14.663Z,14.82
2018-01-22T20:27:44.167Z,16.08
2018-01-22T20:30:14.251Z,12.77
2018-01-22T20:32:43.425Z,17.67
2018-01-22T20:35:12.622Z,14.65
2018-01-22T20:37:41.845Z,12.10
2018-01-22T20:40:10.548Z,12.25
2018-01-22T20:42:39.755Z,16.58
2018-01-22T20:45:08.332Z,11.88
2018-01-22T20:47:37.586Z,12.52
2018-01-22T20:50:06.367Z,15.07
2018-01-22T20:52:35.278Z,9.98
2018-01-22T20:55:05.802Z,18.25
2018-01-22T20:57:34.175Z,8.68
2018-01-22T21:00:03.883Z,11.27
2018-01-22T21:02:32.348Z,14.13
2018-01-22T21:05:01.085Z,10.57
2018-01-22T21:07:30.445Z,8.57
2018-01-22T21:09:58.936Z,12.45
2018-01-22T21:12:28.560Z,10.77
2018-01-22T21:14:57.168Z,14.35
2018-01-22T21:17:26.297Z,10.52
2018-01-22T21:19:54.717Z,10.82
2018-01-22T21:22:23.108Z,13.73
2018-01-22T21:24:51.636Z,17.92
2018-01-22T21:27:20.705Z,16.85
2018-01-22T21:29:49.082Z,16.60
2018-01-22T21:32:18.535Z,17.48
2018-01-22T21:34:46.947Z,16.33
2018-01-22T21:37:16.102Z,17.48
2018-01-22T21:39:44.492Z,16.15
2018-01-22T21:42:12.857Z,16.05
2018-01-22T21:44:41.539Z,22.17
2018-01-22T21:47:09.906Z,13.23
2018-01-22T21:49:38.277Z,16.48
2018-01-22T21:52:06.672Z,20.62
2018-01-22T21:54:35.045Z,19.73
2018-01-22T21:57:06.379Z,28.38
2018-01-22T21:59:34.798Z,18.58
2018-01-22T22:02:03.177Z,19.35
2018-01-22T22:04:32.494Z,16.12
2018-01-22T22:07:00.865Z,20.37
2018-01-22T22:09:29.329Z,21.83
2018-01-22T22:11:57.924Z,20.02
2018-01-22T22:14:43.404Z,22.45
2018-01-22T22:23:22.388Z,24.85
2018-01-22T22:26:12.853Z,29.70
2018-01-22T22:28:43.366Z,26.12
2018-01-22T22:31:12.069Z,28.98
2018-01-22T22:33:40.456Z,41.30
2018-01-22T22:36:08.882Z,31.77
2018-01-22T22:38:38.035Z,31.80
2018-01-22T22:41:06.781Z,31.65
2018-01-22T22:43:35.189Z,33.80
2018-01-22T22:46:03.555Z,33.58
2018-01-22T22:48:31.925Z,31.00
2018-01-22T22:51:00.309Z,32.38
2018-01-22T22:53:28.670Z,31.65
2018-01-22T22:55:57.284Z,34.10
2018-01-22T22:58:25.661Z,78.25
2018-01-22T23:00:54.030Z,82.37
2018-01-22T23:03:22.417Z,42.30
2018-01-22T23:05:50.781Z,46.70
2018-01-22T23:08:19.218Z,33.78
2018-01-22T23:10:47.573Z,32.40
2018-01-22T23:13:15.934Z,37.15
2018-01-22T23:15:44.321Z,32.28
2018-01-22T23:18:12.681Z,32.33
2018-01-22T23:20:41.373Z,26.60
2018-01-22T23:23:09.734Z,37.45
2018-01-22T23:25:38.097Z,31.17
2018-01-22T23:28:06.483Z,34.10
2018-01-22T23:30:35.690Z,22.67
2018-01-22T23:33:04.277Z,34.88
2018-01-22T23:35:32.646Z,30.42
2018-01-22T23:38:01.037Z,32.70
2018-01-22T23:40:48.705Z,29.87
2018-01-22T23:43:17.073Z,26.17
2018-01-22T23:45:54.475Z,26.48
2018-01-22T23:54:35.254Z,27.30
2018-01-22T23:57:03.649Z,29.37
2018-01-22T23:59:32.012Z,27.05
